Time;durP1;ratioP1;P1;durP2;ratioP2;P2;SDS_P1;SDS_P2;PMS_P1;PMS_P2;Temp;Humidity;BMP_temperature;BMP_pressure;BME280_temperature;BME280_humidity;BME280_pressure;Samples;Min_cycle;Max_cycle;Signal;HPM_P1;HPM_P2
2022/03/16 00:01:45;;;;;;;;;;;;;;;17.70;46.89;102525.75;5014083;28;20264;-76
2022/03/16 00:04:11;;;;;;;;;;;;;;;17.70;47.02;102528.38;4980807;28;19926;-75
2022/03/16 00:06:36;;;;;;;;;;;;;;;17.69;47.09;102521.44;5001537;28;19918;-83
2022/03/16 00:09:04;;;;;;;;;;;;;;;17.67;47.16;102521.38;5019530;28;19909;-84
2022/03/16 00:11:29;;;;;;;;;;;;;;;17.68;47.10;102522.25;5011145;28;19913;-85
2022/03/16 00:13:55;;;;;;;;;;;;;;;17.68;47.05;102527.47;5038945;28;19909;-85
2022/03/16 00:16:20;;;;;;;;;;;;;;;17.68;46.98;102538.78;5008717;28;19905;-85
2022/03/16 00:18:45;;;;;;;;;;;;;;;17.68;47.18;102537.88;5020929;28;19933;-76
2022/03/16 00:21:11;;;;;;;;;;;;;;;17.67;47.14;102537.00;5003726;28;19948;-75
2022/03/16 00:23:36;;;;;;;;;;;;;;;17.66;47.13;102543.09;5002158;28;19918;-75
2022/03/16 00:26:01;;;;;;;;;;;;;;;17.66;46.98;102535.28;5000650;28;20284;-75
2022/03/16 00:28:26;;;;;;;;;;;;;;;17.66;47.04;102543.09;5000550;28;19952;-75
2022/03/16 00:30:52;;;;;;;;;;;;;;;17.65;47.04;102535.25;5018048;28;19975;-75
2022/03/16 00:33:17;;;;;;;;;;;;;;;17.65;46.87;102532.63;5017693;28;19913;-75
2022/03/16 00:35:42;;;;;;;;;;;;;;;17.64;46.98;102531.75;4984362;28;19925;-76
2022/03/16 00:38:09;;;;;;;;;;;;;;;17.65;47.02;102537.84;4983965;28;19968;-75
2022/03/16 00:40:35;;;;;;;;;;;;;;;17.65;47.27;102528.28;5029008;28;19914;-86
2022/03/16 00:43:00;;;;;;;;;;;;;;;17.64;47.19;102536.09;5041048;28;20005;-85
2022/03/16 00:45:26;;;;;;;;;;;;;;;17.64;47.13;102541.31;5023642;28;19925;-85
2022/03/16 00:47:51;;;;;;;;;;;;;;;17.64;47.11;102536.09;5007533;28;19921;-85
2022/03/16 00:50:16;;;;;;;;;;;;;;;17.63;47.43;102524.78;5023479;28;19924;-84
2022/03/16 00:52:42;;;;;;;;;;;;;;;17.63;47.23;102531.72;5017483;28;19920;-84
2022/03/16 00:55:07;;;;;;;;;;;;;;;17.63;47.08;102523.91;5008231;28;19905;-86
2022/03/16 00:57:32;;;;;;;;;;;;;;;17.63;47.09;102526.53;5006389;28;19926;-85
2022/03/16 01:00:00;;;;;;;;;;;;;;;17.62;47.25;102530.00;5006476;28;19941;-86
2022/03/16 01:02:26;;;;;;;;;;;;;;;17.62;47.07;102535.19;5040835;28;19913;-85
2022/03/16 01:04:57;;;;;;;;;;;;;;;17.61;47.11;102520.41;5024008;28;19916;-85
2022/03/16 01:07:26;;;;;;;;;;;;;;;17.61;47.16;102523.88;5007920;28;20016;-85
2022/03/16 01:09:54;;;;;;;;;;;;;;;17.61;47.26;102526.50;5029494;28;19944;-75
2022/03/16 01:12:20;;;;;;;;;;;;;;;17.61;47.18;102530.81;4990168;28;19917;-76
2022/03/16 01:14:46;;;;;;;;;;;;;;;17.60;47.03;102526.47;5023920;28;20375;-75
2022/03/16 01:17:11;;;;;;;;;;;;;;;17.60;47.33;102526.47;4987186;28;19921;-76
2022/03/16 01:19:36;;;;;;;;;;;;;;;17.60;47.09;102524.75;5021399;28;19920;-76
2022/03/16 01:22:02;;;;;;;;;;;;;;;17.60;47.18;102523.88;5021260;28;19948;-76
2022/03/16 01:24:28;;;;;;;;;;;;;;;17.59;47.43;102522.09;5019744;28;19917;-76
2022/03/16 01:26:53;;;;;;;;;;;;;;;17.60;46.95;102529.09;5017645;28;19918;-76
2022/03/16 01:29:18;;;;;;;;;;;;;;;17.58;47.20;102526.44;5000114;28;19917;-76
2022/03/16 01:31:43;;;;;;;;;;;;;;;17.58;47.15;102523.84;4983375;28;20019;-76
2022/03/16 01:34:09;;;;;;;;;;;;;;;17.58;47.19;102531.66;5017155;28;20388;-76
2022/03/16 01:36:34;;;;;;;;;;;;;;;17.58;46.90;102528.19;4983545;28;19926;-76
2022/03/16 01:38:59;;;;;;;;;;;;;;;17.57;47.01;102527.31;4999255;28;19925;-76
2022/03/16 01:41:24;;;;;;;;;;;;;;;17.57;47.39;102529.91;4999219;28;20375;-76
2022/03/16 01:43:56;;;;;;;;;;;;;;;17.57;47.24;102529.91;4982371;28;20016;-76
2022/03/16 01:46:22;;;;;;;;;;;;;;;17.58;47.07;102528.19;5016934;28;20272;-76
2022/03/16 01:48:47;;;;;;;;;;;;;;;17.57;46.95;102518.59;5016622;28;20016;-76
2022/03/16 01:51:13;;;;;;;;;;;;;;;17.56;47.27;102516.88;4982772;28;19921;-76
2022/03/16 01:53:41;;;;;;;;;;;;;;;17.56;47.05;102524.69;4998751;28;19967;-76
2022/03/16 01:56:07;;;;;;;;;;;;;;;17.56;47.29;102519.47;4998999;28;19913;-76
2022/03/16 01:58:33;;;;;;;;;;;;;;;17.55;47.50;102522.91;5015822;28;19917;-76
2022/03/16 02:00:58;;;;;;;;;;;;;;;17.56;47.26;102522.06;4999014;28;20445;-75
2022/03/16 02:03:23;;;;;;;;;;;;;;;17.54;47.27;102518.56;4998274;28;19925;-76
2022/03/16 02:05:49;;;;;;;;;;;;;;;17.54;47.16;102526.38;4982386;28;19922;-76
2022/03/16 02:08:14;;;;;;;;;;;;;;;17.56;47.18;102524.69;4982010;28;19922;-76
2022/03/16 02:10:40;;;;;;;;;;;;;;;17.54;47.25;102529.84;4998303;28;19961;-76
2022/03/16 02:13:07;;;;;;;;;;;;;;;17.54;47.23;102531.56;4998394;28;20020;-76
2022/03/16 02:15:32;;;;;;;;;;;;;;;17.53;47.27;102527.19;5015635;28;20423;-76
2022/03/16 02:17:58;;;;;;;;;;;;;;;17.53;47.24;102529.81;5015472;28;20064;-76
2022/03/16 02:20:23;;;;;;;;;;;;;;;17.54;46.97;102521.16;4998352;28;20360;-76
2022/03/16 02:22:50;;;;;;;;;;;;;;;17.51;47.26;102511.59;4981895;28;19917;-76
2022/03/16 02:25:16;;;;;;;;;;;;;;;17.51;47.30;102506.38;4997797;28;19914;-76
2022/03/16 02:27:42;;;;;;;;;;;;;;;17.52;47.22;102509.84;4981699;28;19948;-76
2022/03/16 02:30:07;;;;;;;;;;;;;;;17.52;47.05;102496.84;4997817;28;19919;-76
2022/03/16 02:32:33;;;;;;;;;;;;;;;17.51;47.23;102495.97;4981457;28;19968;-76
2022/03/16 02:34:58;;;;;;;;;;;;;;;17.50;47.00;102501.13;4997587;28;20363;-76
2022/03/16 02:37:24;;;;;;;;;;;;;;;17.48;47.36;102488.09;4996645;28;19918;-76
2022/03/16 02:39:49;;;;;;;;;;;;;;;17.48;47.32;102490.69;5015027;28;19963;-76
2022/03/16 02:42:14;;;;;;;;;;;;;;;17.49;47.33;102489.84;4997472;28;19913;-75
2022/03/16 02:44:39;;;;;;;;;;;;;;;17.49;47.39;102487.25;5015306;28;19956;-76
2022/03/16 02:47:05;;;;;;;;;;;;;;;17.48;47.01;102481.19;4997602;28;19918;-75
2022/03/16 02:49:31;;;;;;;;;;;;;;;17.49;47.48;102482.03;4997679;28;20067;-76
2022/03/16 02:51:57;;;;;;;;;;;;;;;17.49;47.31;102482.03;4981303;28;19924;-76
2022/03/16 02:54:22;;;;;;;;;;;;;;;17.48;47.17;102475.06;4997264;28;19913;-76
2022/03/16 02:56:48;;;;;;;;;;;;;;;17.47;47.17;102478.53;4997088;28;19918;-76
2022/03/16 02:59:13;;;;;;;;;;;;;;;17.46;47.24;102477.66;4997074;28;19925;-76
2022/03/16 03:01:38;;;;;;;;;;;;;;;17.48;47.23;102475.06;4980929;28;19917;-76
2022/03/16 03:04:03;;;;;;;;;;;;;;;17.46;47.32;102475.06;5015088;28;20371;-76
2022/03/16 03:06:30;;;;;;;;;;;;;;;17.46;47.37;102464.66;4980504;28;19918;-76
2022/03/16 03:08:55;;;;;;;;;;;;;;;17.47;47.04;102468.13;4980945;28;19924;-76
2022/03/16 03:11:20;;;;;;;;;;;;;;;17.45;47.27;102465.50;5014669;28;19917;-76
2022/03/16 03:13:46;;;;;;;;;;;;;;;17.45;47.11;102464.63;5014463;28;20017;-76
2022/03/16 03:16:11;;;;;;;;;;;;;;;17.46;47.30;102468.97;5014742;28;19989;-76
2022/03/16 03:18:37;;;;;;;;;;;;;;;17.45;47.07;102469.81;4996897;28;19917;-76
2022/03/16 03:21:03;;;;;;;;;;;;;;;17.45;47.29;102475.91;4997386;28;19967;-75
2022/03/16 03:23:28;;;;;;;;;;;;;;;17.45;47.09;102470.69;4997108;28;20007;-75
2022/03/16 03:25:53;;;;;;;;;;;;;;;17.45;47.25;102464.63;5014345;28;20327;-76
2022/03/16 03:28:18;;;;;;;;;;;;;;;17.45;47.13;102467.22;4996845;28;19914;-76
2022/03/16 03:30:44;;;;;;;;;;;;;;;17.44;47.45;102465.47;4980831;28;19917;-76
2022/03/16 03:33:09;;;;;;;;;;;;;;;17.43;47.42;102468.91;4996728;28;19917;-76
2022/03/16 03:35:34;;;;;;;;;;;;;;;17.43;47.07;102477.59;4996894;28;20012;-76
2022/03/16 03:37:59;;;;;;;;;;;;;;;17.44;47.22;102473.25;5014498;28;19917;-76
2022/03/16 03:40:25;;;;;;;;;;;;;;;17.44;47.22;102481.06;5000036;28;19917;-76
2022/03/16 03:42:51;;;;;;;;;;;;;;;17.43;47.44;102480.19;5017073;28;19917;-76
2022/03/16 03:45:16;;;;;;;;;;;;;;;17.42;47.30;102474.97;5000924;28;19922;-76
2022/03/16 03:47:41;;;;;;;;;;;;;;;17.41;47.38;102471.50;4981534;28;19918;-76
2022/03/16 03:50:07;;;;;;;;;;;;;;;17.42;47.23;102472.34;4980717;28;19917;-76
2022/03/16 03:52:32;;;;;;;;;;;;;;;17.41;47.30;102476.69;4981061;28;19925;-76
2022/03/16 03:54:57;;;;;;;;;;;;;;;17.42;47.25;102477.56;5015108;28;19917;-76
2022/03/16 03:57:22;;;;;;;;;;;;;;;17.40;47.50;102476.69;4981217;28;19922;-76
2022/03/16 03:59:48;;;;;;;;;;;;;;;17.41;47.47;102473.22;4980935;28;19925;-76
2022/03/16 04:02:14;;;;;;;;;;;;;;;17.41;47.16;102470.63;4981352;28;19917;-76
2022/03/16 04:04:39;;;;;;;;;;;;;;;17.40;47.36;102467.16;5014705;28;19920;-76
2022/03/16 04:07:04;;;;;;;;;;;;;;;17.40;47.48;102464.53;4997089;28;19913;-76
2022/03/16 04:09:30;;;;;;;;;;;;;;;17.39;47.22;102462.78;4997150;28;19951;-76
2022/03/16 04:11:55;;;;;;;;;;;;;;;17.39;47.26;102461.91;4981379;28;19921;-76
2022/03/16 04:14:20;;;;;;;;;;;;;;;17.38;47.08;102455.84;4997050;28;20279;-76
2022/03/16 04:16:45;;;;;;;;;;;;;;;17.39;47.52;102456.72;4997169;28;19921;-76
2022/03/16 04:19:10;;;;;;;;;;;;;;;17.37;47.32;102454.06;4999539;28;19959;-76
2022/03/16 04:21:36;;;;;;;;;;;;;;;17.38;47.63;102457.56;5016609;28;19936;-76
2022/03/16 04:24:02;;;;;;;;;;;;;;;17.37;47.52;102448.88;5016084;28;19918;-76
2022/03/16 04:26:27;;;;;;;;;;;;;;;17.37;47.64;102443.66;5016585;28;19919;-76
2022/03/16 04:28:52;;;;;;;;;;;;;;;17.38;47.45;102442.81;4999105;28;19921;-76
2022/03/16 04:31:17;;;;;;;;;;;;;;;17.37;47.44;102445.38;4997990;28;20368;-75
2022/03/16 04:33:43;;;;;;;;;;;;;;;17.37;47.55;102445.38;4997925;28;20402;-76
2022/03/16 04:36:08;;;;;;;;;;;;;;;17.36;47.51;102444.53;4996981;28;20331;-76
2022/03/16 04:38:33;;;;;;;;;;;;;;;17.37;47.44;102437.59;4996673;28;19926;-76
2022/03/16 04:41:02;;;;;;;;;;;;;;;17.36;47.43;102447.13;5014127;28;19917;-76
2022/03/16 04:43:28;;;;;;;;;;;;;;;17.35;47.36;102447.97;4996448;28;19996;-76
2022/03/16 04:45:53;;;;;;;;;;;;;;;17.35;47.53;102441.88;4996898;28;19967;-76
2022/03/16 04:48:18;;;;;;;;;;;;;;;17.34;47.49;102441.00;4996571;28;20376;-76
2022/03/16 04:50:43;;;;;;;;;;;;;;;17.34;47.51;102434.94;5013781;28;19993;-76
2022/03/16 04:53:09;;;;;;;;;;;;;;;17.34;47.51;102441.00;4980149;28;20380;-76
2022/03/16 04:55:37;;;;;;;;;;;;;;;17.34;47.19;102442.75;5014035;28;20343;-76
2022/03/16 04:58:06;;;;;;;;;;;;;;;17.32;47.27;102440.13;4996153;28;19917;-76
2022/03/16 05:00:32;;;;;;;;;;;;;;;17.32;47.50;102442.72;4997197;28;19929;-76
2022/03/16 05:02:57;;;;;;;;;;;;;;;17.33;47.46;102444.44;5000238;28;20052;-76
2022/03/16 05:05:22;;;;;;;;;;;;;;;17.34;47.54;102443.63;5019693;28;20376;-76
2022/03/16 05:07:48;;;;;;;;;;;;;;;17.32;47.30;102442.72;5005630;28;19917;-76
2022/03/16 05:10:13;;;;;;;;;;;;;;;17.32;47.30;102447.91;5006843;28;19917;-76
2022/03/16 05:12:42;;;;;;;;;;;;;;;17.32;47.36;102447.06;5019585;28;19947;-76
2022/03/16 05:15:10;;;;;;;;;;;;;;;17.30;47.47;102441.81;5020950;28;19914;-75
2022/03/16 05:17:36;;;;;;;;;;;;;;;17.31;47.49;102447.88;5007257;28;19924;-76
2022/03/16 05:20:01;;;;;;;;;;;;;;;17.30;47.51;102449.63;5023273;28;19957;-76
2022/03/16 05:22:27;;;;;;;;;;;;;;;17.30;47.20;102444.41;4983962;28;20384;-76
2022/03/16 05:24:52;;;;;;;;;;;;;;;17.30;47.42;102446.16;4989068;28;19917;-78
2022/03/16 05:27:20;;;;;;;;;;;;;;;17.30;47.45;102446.16;4988110;28;19917;-78
2022/03/16 05:29:45;;;;;;;;;;;;;;;17.28;47.32;102441.78;4990229;28;19922;-78
2022/03/16 05:32:10;;;;;;;;;;;;;;;17.28;47.42;102449.56;5022690;28;19937;-76
2022/03/16 05:34:36;;;;;;;;;;;;;;;17.29;47.61;102458.28;5001577;28;19918;-76
2022/03/16 05:37:01;;;;;;;;;;;;;;;17.30;47.64;102451.34;5001964;28;19917;-76
2022/03/16 05:39:26;;;;;;;;;;;;;;;17.30;47.69;102453.94;5001798;28;19924;-76
2022/03/16 05:41:52;;;;;;;;;;;;;;;17.32;47.58;102458.31;5001783;28;19917;-76
2022/03/16 05:44:17;;;;;;;;;;;;;;;17.31;47.74;102451.38;5001151;28;19914;-76
2022/03/16 05:46:42;;;;;;;;;;;;;;;17.32;47.60;102458.31;5018693;28;20418;-76
2022/03/16 05:49:07;;;;;;;;;;;;;;;17.33;47.50;102462.66;5000018;28;19918;-76
2022/03/16 05:51:33;;;;;;;;;;;;;;;17.33;47.52;102461.81;5001176;28;19971;-78
2022/03/16 05:53:58;;;;;;;;;;;;;;;17.34;47.44;102459.22;4984557;28;19924;-76
2022/03/16 05:56:23;;;;;;;;;;;;;;;17.33;47.42;102460.06;5017637;28;20419;-76
2022/03/16 05:58:48;;;;;;;;;;;;;;;17.34;47.29;102458.38;4983649;28;20445;-76
2022/03/16 06:01:14;;;;;;;;;;;;;;;17.35;47.40;102458.38;4999143;28;19917;-75
2022/03/16 06:03:39;;;;;;;;;;;;;;;17.36;47.47;102460.13;5016416;28;19917;-75
2022/03/16 06:06:05;;;;;;;;;;;;;;;17.37;47.47;102463.59;5000727;28;20024;-77
2022/03/16 06:08:30;;;;;;;;;;;;;;;17.45;47.92;102459.41;5002143;28;19913;-77
2022/03/16 06:10:55;;;;;;;;;;;;;;;17.54;48.02;102471.72;5002234;28;20028;-78
2022/03/16 06:13:21;;;;;;;;;;;;;;;17.60;48.17;102470.06;5018632;28;19914;-78
2022/03/16 06:15:47;;;;;;;;;;;;;;;17.65;48.17;102470.16;4986653;28;20024;-77
2022/03/16 06:18:12;;;;;;;;;;;;;;;17.69;47.98;102461.53;5000355;28;19921;-77
2022/03/16 06:20:38;;;;;;;;;;;;;;;17.73;48.00;102460.75;4985469;28;19956;-78
2022/03/16 06:23:05;;;;;;;;;;;;;;;17.75;47.90;102472.06;5001037;28;20048;-76
2022/03/16 06:25:31;;;;;;;;;;;;;;;17.77;48.06;102465.16;5016140;28;19913;-76
2022/03/16 06:27:56;;;;;;;;;;;;;;;17.78;47.68;102461.69;5016261;28;19921;-76
2022/03/16 06:30:21;;;;;;;;;;;;;;;17.82;47.93;102468.72;4999832;28;19957;-78
2022/03/16 06:32:47;;;;;;;;;;;;;;;17.95;47.70;102464.59;4985950;28;19925;-78
2022/03/16 06:35:14;;;;;;;;;;;;;;;17.94;47.56;102459.34;5002471;28;19913;-78
2022/03/16 06:37:39;;;;;;;;;;;;;;;17.92;47.61;102467.16;4985616;28;19956;-78
2022/03/16 06:40:05;;;;;;;;;;;;;;;17.93;47.55;102458.47;5001481;28;19933;-78
2022/03/16 06:42:30;;;;;;;;;;;;;;;17.95;47.48;102464.59;4985401;28;19922;-78
2022/03/16 06:44:55;;;;;;;;;;;;;;;17.97;47.53;102462.00;5001452;28;20012;-78
2022/03/16 06:47:21;;;;;;;;;;;;;;;18.00;47.33;102464.63;4984247;28;19969;-78
2022/03/16 06:49:46;;;;;;;;;;;;;;;17.97;47.51;102470.69;5000945;28;19914;-78
2022/03/16 06:52:14;;;;;;;;;;;;;;;17.97;47.42;102478.50;4984033;28;20372;-78
2022/03/16 06:54:40;;;;;;;;;;;;;;;17.95;47.39;102472.41;4984149;28;20292;-78
2022/03/16 06:57:05;;;;;;;;;;;;;;;17.91;47.74;102475.81;4984190;28;19921;-79
2022/03/16 06:59:31;;;;;;;;;;;;;;;17.89;47.68;102467.09;4985956;28;20299;-79
2022/03/16 07:01:56;;;;;;;;;;;;;;;17.88;47.76;102473.16;5003108;28;19932;-80
2022/03/16 07:04:21;;;;;;;;;;;;;;;17.89;47.52;102469.69;4991225;28;19921;-80
2022/03/16 07:06:46;;;;;;;;;;;;;;;17.90;47.82;102471.47;5006837;28;19996;-78
2022/03/16 07:09:11;;;;;;;;;;;;;;;17.93;47.50;102465.41;4989391;28;19925;-79
2022/03/16 07:11:37;;;;;;;;;;;;;;;17.98;47.36;102454.19;4989951;28;19953;-79
2022/03/16 07:16:46;;;;;;;;;;;;;;;18.29;46.67;102449.41;5021429;28;19924;-78
2022/03/16 07:19:11;;;;;;;;;;;;;;;18.61;46.05;102444.59;4988315;28;19918;-78
2022/03/16 07:21:37;;;;;;;;;;;;;;;19.14;44.72;102443.47;4986218;28;19917;-80
2022/03/16 07:24:03;;;;;;;;;;;;;;;19.67;43.46;102450.88;5004764;28;19964;-77
2022/03/16 07:26:28;;;;;;;;;;;;;;;19.98;42.83;102440.63;5001345;28;20017;-77
2022/03/16 07:28:53;;;;;;;;;;;;;;;20.14;42.42;102444.22;4984261;28;19925;-78
2022/03/16 07:31:19;;;;;;;;;;;;;;;20.08;42.46;102442.44;4982809;28;19918;-77
2022/03/16 07:33:44;;;;;;;;;;;;;;;20.10;42.39;102442.47;4998390;28;19913;-77
2022/03/16 07:36:10;;;;;;;;;;;;;;;20.12;42.45;102432.88;4997510;28;20052;-77
2022/03/16 07:38:35;;;;;;;;;;;;;;;20.07;42.40;102440.69;4980672;28;19999;-77
2022/03/16 07:41:02;;;;;;;;;;;;;;;20.10;42.22;102429.41;4996640;28;19914;-77
2022/03/16 07:43:28;;;;;;;;;;;;;;;19.63;43.33;102429.94;4980915;28;19918;-78
2022/03/16 07:45:53;;;;;;;;;;;;;;;18.88;45.17;102430.16;5000191;28;19920;-77
2022/03/16 07:48:18;;;;;;;;;;;;;;;18.56;46.11;102427.16;4982834;28;19977;-77
2022/03/16 07:50:43;;;;;;;;;;;;;;;18.43;46.34;102421.78;4999792;28;19944;-77
2022/03/16 07:53:09;;;;;;;;;;;;;;;18.36;46.40;102422.59;5001813;28;19957;-77
2022/03/16 07:55:34;;;;;;;;;;;;;;;18.34;46.32;102420.81;4984468;28;19918;-78
2022/03/16 07:57:59;;;;;;;;;;;;;;;18.36;46.32;102417.38;4984856;28;19922;-78
2022/03/16 08:00:25;;;;;;;;;;;;;;;18.96;44.87;102414.56;4983847;28;20343;-77
2022/03/16 08:02:52;;;;;;;;;;;;;;;19.27;43.97;102415.72;5001081;28;20000;-78
2022/03/16 08:05:21;;;;;;;;;;;;;;;19.35;43.96;102415.78;5000165;28;20000;-78
2022/03/16 08:07:46;;;;;;;;;;;;;;;19.24;44.12;102421.78;4999335;28;19921;-78
2022/03/16 08:10:11;;;;;;;;;;;;;;;19.25;44.29;102420.94;5000159;28;19914;-78
2022/03/16 08:12:36;;;;;;;;;;;;;;;19.24;44.28;102411.34;4998964;28;19968;-77
2022/03/16 08:15:02;;;;;;;;;;;;;;;19.19;44.31;102409.59;4998879;28;19957;-77
2022/03/16 08:17:27;;;;;;;;;;;;;;;19.11;44.44;102404.28;4999081;28;19941;-77
2022/03/16 08:19:53;;;;;;;;;;;;;;;19.10;44.59;102407.75;4999924;28;19945;-78
2022/03/16 08:22:25;;;;;;;;;;;;;;;19.10;44.58;102419.06;4983562;28;19917;-77
2022/03/16 08:24:51;;;;;;;;;;;;;;;18.98;44.65;102424.16;5016876;28;19914;-77
2022/03/16 08:27:16;;;;;;;;;;;;;;;18.87;45.11;102417.97;4983332;28;20338;-77
2022/03/16 08:29:42;;;;;;;;;;;;;;;18.83;45.01;102409.22;4982141;28;19922;-77
2022/03/16 08:32:07;;;;;;;;;;;;;;;18.85;45.06;102423.16;4981970;28;20453;-77
2022/03/16 08:34:33;;;;;;;;;;;;;;;18.81;45.04;102423.13;5015736;28;19917;-77
2022/03/16 08:37:00;;;;;;;;;;;;;;;18.68;45.53;102417.75;5000433;28;20012;-78
2022/03/16 08:39:26;;;;;;;;;;;;;;;18.79;45.09;102412.69;5002328;28;19924;-78
2022/03/16 08:41:51;;;;;;;;;;;;;;;18.84;44.93;102410.13;5018907;28;19913;-77
2022/03/16 08:44:17;;;;;;;;;;;;;;;18.79;45.05;102412.69;4985072;28;19917;-77
2022/03/16 08:46:42;;;;;;;;;;;;;;;18.74;45.19;102405.63;4984963;28;20287;-78
2022/03/16 08:49:08;;;;;;;;;;;;;;;18.70;45.24;102407.31;4984698;28;19918;-78
2022/03/16 08:51:33;;;;;;;;;;;;;;;18.69;45.04;102400.38;5019018;28;20033;-77
2022/03/16 08:53:58;;;;;;;;;;;;;;;18.71;45.25;102403.88;5001325;28;19914;-78
2022/03/16 08:56:23;;;;;;;;;;;;;;;18.75;44.92;102394.31;4985956;28;19921;-77
2022/03/16 08:58:48;;;;;;;;;;;;;;;18.74;45.19;102406.50;4984744;28;19921;-78
2022/03/16 09:01:14;;;;;;;;;;;;;;;18.77;44.97;102398.72;5000968;28;19921;-77
2022/03/16 09:03:39;;;;;;;;;;;;;;;18.80;44.74;102401.38;4984451;28;19918;-77
2022/03/16 09:06:04;;;;;;;;;;;;;;;18.80;44.83;102387.47;5001892;28;19913;-78
2022/03/16 09:08:31;;;;;;;;;;;;;;;18.79;44.87;102389.22;5000647;28;19917;-77
2022/03/16 09:10:57;;;;;;;;;;;;;;;18.79;44.89;102389.22;4986161;28;19980;-77
2022/03/16 09:13:22;;;;;;;;;;;;;;;18.76;45.12;102396.94;5023012;28;19959;-78
2022/03/16 09:15:49;;;;;;;;;;;;;;;18.73;45.02;102398.66;5010217;28;19924;-77
2022/03/16 09:18:14;;;;;;;;;;;;;;;18.67;45.25;102400.34;5009140;28;20368;-77
2022/03/16 09:20:39;;;;;;;;;;;;;;;18.67;45.28;102396.88;5004694;28;19925;-78
2022/03/16 09:23:05;;;;;;;;;;;;;;;18.65;45.34;102396.84;4991107;28;19917;-78
2022/03/16 09:25:30;;;;;;;;;;;;;;;18.61;45.32;102391.56;5011099;28;19921;-78
2022/03/16 09:27:55;;;;;;;;;;;;;;;18.56;45.52;102382.84;5010068;28;19952;-77
2022/03/16 09:30:23;;;;;;;;;;;;;;;18.55;45.60;102383.69;5006301;28;19945;-77
2022/03/16 09:32:48;;;;;;;;;;;;;;;18.54;45.34;102392.38;5005833;28;19940;-78
2022/03/16 09:35:13;;;;;;;;;;;;;;;18.49;45.53;102385.38;4988839;28;19918;-77
2022/03/16 09:37:40;;;;;;;;;;;;;;;18.47;45.70;102381.88;5004349;28;19924;-77
2022/03/16 09:40:05;;;;;;;;;;;;;;;18.47;45.63;102373.19;5002774;28;19925;-77
2022/03/16 09:42:31;;;;;;;;;;;;;;;18.49;45.46;102367.13;4987318;28;19917;-78
2022/03/16 09:44:59;;;;;;;;;;;;;;;18.46;45.42;102364.47;5003996;28;19913;-78
2022/03/16 09:47:25;;;;;;;;;;;;;;;18.44;45.70;102361.00;5001952;28;20000;-78
2022/03/16 09:49:52;;;;;;;;;;;;;;;18.41;45.66;102352.25;4986850;28;19964;-78
2022/03/16 09:52:17;;;;;;;;;;;;;;;18.40;45.63;102358.31;5003089;28;20380;-78
2022/03/16 09:54:42;;;;;;;;;;;;;;;18.38;45.66;102352.22;5002196;28;19917;-78
2022/03/16 09:57:07;;;;;;;;;;;;;;;18.38;45.72;102345.28;5001617;28;20020;-78
2022/03/16 09:59:33;;;;;;;;;;;;;;;18.38;45.59;102347.00;4986221;28;19926;-78
2022/03/16 10:02:09;;;;;;;;;;;;;;;18.36;45.60;102341.78;5001486;28;19917;-78
2022/03/16 10:04:36;;;;;;;;;;;;;;;18.36;45.79;102349.59;5002793;28;19913;-78
2022/03/16 10:07:02;;;;;;;;;;;;;;;18.37;45.70;102364.38;5002096;28;19948;-78
2022/03/16 10:15:03;;;;;;;;;;;;;;;18.34;45.58;102343.50;5018035;28;19920;-78
2022/03/16 10:17:43;;;;;;;;;;;;;;;18.33;45.73;102340.88;5002399;28;19918;-77
2022/03/16 10:20:09;;;;;;;;;;;;;;;18.33;45.57;102346.09;5004751;28;19914;-77
2022/03/16 10:22:38;;;;;;;;;;;;;;;18.31;45.72;102356.47;4988330;28;19976;-78
2022/03/16 10:25:05;;;;;;;;;;;;;;;18.31;45.79;102353.88;5003217;28;19917;-78
2022/03/16 10:27:31;;;;;;;;;;;;;;;18.29;45.74;102343.44;5002428;28;19999;-78
2022/03/16 10:29:56;;;;;;;;;;;;;;;18.29;45.80;102355.59;5021839;28;19917;-77
2022/03/16 10:32:22;;;;;;;;;;;;;;;18.28;45.83;102354.72;5005578;28;19937;-78
2022/03/16 10:34:51;;;;;;;;;;;;;;;18.28;45.78;102348.63;5025801;28;19917;-77
2022/03/16 10:37:17;;;;;;;;;;;;;;;18.26;45.70;102348.59;5006552;28;19984;-78
2022/03/16 10:39:43;;;;;;;;;;;;;;;18.26;45.83;102343.41;5023558;28;19956;-78
2022/03/16 10:47:54;;;;;;;;;;;;;;;18.23;45.85;102348.59;5022101;28;19959;-78
2022/03/16 10:50:20;;;;;;;;;;;;;;;18.27;45.84;102357.31;4987144;28;19917;-78
2022/03/16 10:52:47;;;;;;;;;;;;;;;18.34;45.28;102363.47;4989459;28;19945;-78
2022/03/16 10:55:12;;;;;;;;;;;;;;;18.42;45.41;102354.91;4988957;28;19917;-78
2022/03/16 10:57:38;;;;;;;;;;;;;;;18.47;45.21;102340.16;5005141;28;20327;-78
2022/03/16 11:00:04;;;;;;;;;;;;;;;18.49;45.26;102346.28;5004154;28;19928;-78
2022/03/16 11:02:34;;;;;;;;;;;;;;;18.54;45.28;102340.25;4986832;28;19922;-78
2022/03/16 11:04:59;;;;;;;;;;;;;;;18.51;45.24;102335.88;5021925;28;19960;-78
2022/03/16 11:07:25;;;;;;;;;;;;;;;18.50;45.30;102334.97;4986197;28;19921;-78
2022/03/16 11:09:51;;;;;;;;;;;;;;;18.51;45.13;102333.25;5003975;28;19917;-78
2022/03/16 11:15:06;;;;;;;;;;;;;;;18.51;45.07;102328.06;5020225;28;19968;-78
2022/03/16 11:17:32;;;;;;;;;;;;;;;18.47;45.25;102340.16;5004327;28;19921;-78
2022/03/16 11:19:59;;;;;;;;;;;;;;;18.47;45.10;102328.88;5020200;28;19984;-78
2022/03/16 11:22:26;;;;;;;;;;;;;;;18.47;45.27;102321.91;4984748;28;20325;-78
2022/03/16 11:24:56;;;;;;;;;;;;;;;18.43;45.41;102322.75;5018200;28;20418;-78
2022/03/16 11:27:31;;;;;;;;;;;;;;;18.38;45.51;102326.16;5001652;28;20008;-78
2022/03/16 11:29:56;;;;;;;;;;;;;;;18.37;45.48;102321.81;5003599;28;20281;-77
2022/03/16 11:32:21;;;;;;;;;;;;;;;18.35;45.28;102323.53;5003007;28;19913;-77
2022/03/16 11:34:58;;;;;;;;;;;;;;;18.34;45.31;102329.59;4985739;28;19917;-78
2022/03/16 11:37:33;;;;;;;;;;;;;;;18.33;45.41;102335.66;5001571;28;19918;-78
2022/03/16 11:40:20;;;;;;;;;;;;;;;18.34;45.42;102321.78;4998983;28;19913;-78
2022/03/16 11:43:04;;;;;;;;;;;;;;;18.36;45.26;102323.53;5018204;28;19913;-77
2022/03/16 11:45:38;;;;;;;;;;;;;;;18.43;45.26;102320.13;5017030;28;19917;-78
2022/03/16 11:48:22;;;;;;;;;;;;;;;18.48;45.23;102317.56;4999268;28;19916;-78
2022/03/16 11:51:07;;;;;;;;;;;;;;;18.49;45.03;102315.00;5000307;28;19914;-78
2022/03/16 11:53:47;;;;;;;;;;;;;;;18.49;45.02;102311.53;4999620;28;19936;-78
2022/03/16 11:56:20;;;;;;;;;;;;;;;18.49;44.96;102303.69;4997793;28;19941;-77
2022/03/16 11:58:47;;;;;;;;;;;;;;;18.50;44.88;102305.44;4998125;28;19918;-76
2022/03/16 12:01:31;;;;;;;;;;;;;;;18.50;45.18;102310.66;4981704;28;20004;-77
2022/03/16 12:04:12;;;;;;;;;;;;;;;18.53;45.18;102307.19;5009951;28;19960;-85
2022/03/16 12:35:37;;;;;;;;;;;;;;;18.53;45.38;102279.41;5039073;28;19910;-87
2022/03/16 12:59:07;;;;;;;;;;;;;;;18.57;45.11;102242.06;5705583;23;19923;-86
2022/03/16 13:14:29;;;;;;;;;;;;;;;18.55;45.35;102203.81;6015218;23;19921;-79
2022/03/16 13:22:05;;;;;;;;;;;;;;;18.57;45.29;102196.88;5024552;23;19945;-83
2022/03/16 13:24:33;;;;;;;;;;;;;;;18.56;45.29;102201.22;4966067;28;19906;-85
2022/03/16 13:27:01;;;;;;;;;;;;;;;18.58;45.08;102196.88;4966346;28;19907;-87
2022/03/16 13:32:03;;;;;;;;;;;;;;;18.56;45.02;102188.19;5723248;23;20289;-76
2022/03/16 13:34:32;;;;;;;;;;;;;;;18.56;45.25;102184.72;4942970;29;19950;-76
2022/03/16 13:36:57;;;;;;;;;;;;;;;18.57;45.11;102179.47;4947740;29;19922;-76
2022/03/16 13:39:27;;;;;;;;;;;;;;;18.57;45.14;102181.22;4949579;29;19915;-76
2022/03/16 13:42:11;;;;;;;;;;;;;;;18.58;44.97;102176.03;4945963;29;19921;-77
2022/03/16 13:44:40;;;;;;;;;;;;;;;18.58;45.01;102178.63;4944480;29;20275;-76
2022/03/16 13:47:26;;;;;;;;;;;;;;;18.61;45.03;102180.41;4928035;29;19919;-76
2022/03/16 13:49:53;;;;;;;;;;;;;;;18.57;45.12;102169.06;4942181;29;19914;-76
2022/03/16 13:52:24;;;;;;;;;;;;;;;18.58;44.99;102170.81;4943330;29;19978;-76
2022/03/16 13:54:50;;;;;;;;;;;;;;;18.56;45.20;102164.72;4942691;29;19942;-76
2022/03/16 13:57:22;;;;;;;;;;;;;;;18.57;45.18;102163.84;4940490;29;19922;-76
2022/03/16 14:00:05;;;;;;;;;;;;;;;18.57;45.14;102160.38;4940767;29;19994;-76